sensor_id;sensor_type;location;lat;lon;timestamp;P1;durP1;ratioP1;P2;durP2;ratioP2
14143;SDS011;7152;48.348;10.980;2023-04-03T00:01:26;6.03;;;5.53;;
14143;SDS011;7152;48.348;10.980;2023-04-03T00:03:52;6.67;;;5.97;;
14143;SDS011;7152;48.348;10.980;2023-04-03T00:06:18;6.53;;;6.00;;
14143;SDS011;7152;48.348;10.980;2023-04-03T00:08:44;6.77;;;6.07;;
14143;SDS011;7152;48.348;10.980;2023-04-03T00:11:09;6.70;;;5.80;;
14143;SDS011;7152;48.348;10.980;2023-04-03T00:13:35;6.20;;;5.60;;
14143;SDS011;7152;48.348;10.980;2023-04-03T00:16:02;6.20;;;5.70;;
14143;SDS011;7152;48.348;10.980;2023-04-03T00:18:28;5.90;;;5.40;;
14143;SDS011;7152;48.348;10.980;2023-04-03T00:20:54;5.63;;;5.13;;
14143;SDS011;7152;48.348;10.980;2023-04-03T00:23:20;6.00;;;5.50;;
14143;SDS011;7152;48.348;10.980;2023-04-03T00:25:46;6.80;;;6.10;;
14143;SDS011;7152;48.348;10.980;2023-04-03T00:28:11;6.30;;;5.40;;
14143;SDS011;7152;48.348;10.980;2023-04-03T00:30:37;6.03;;;5.43;;
14143;SDS011;7152;48.348;10.980;2023-04-03T00:33:03;6.53;;;5.90;;
14143;SDS011;7152;48.348;10.980;2023-04-03T00:35:28;5.83;;;5.33;;
14143;SDS011;7152;48.348;10.980;2023-04-03T00:37:55;5.83;;;5.33;;
14143;SDS011;7152;48.348;10.980;2023-04-03T00:40:22;5.77;;;5.27;;
14143;SDS011;7152;48.348;10.980;2023-04-03T00:42:51;5.40;;;5.00;;
14143;SDS011;7152;48.348;10.980;2023-04-03T00:45:54;5.93;;;5.43;;
14143;SDS011;7152;48.348;10.980;2023-04-03T00:48:15;5.90;;;5.40;;
14143;SDS011;7152;48.348;10.980;2023-04-03T00:50:45;5.20;;;4.70;;
14143;SDS011;7152;48.348;10.980;2023-04-03T00:53:12;5.50;;;5.00;;
14143;SDS011;7152;48.348;10.980;2023-04-03T00:55:41;5.00;;;4.60;;
14143;SDS011;7152;48.348;10.980;2023-04-03T00:58:08;5.20;;;4.80;;
14143;SDS011;7152;48.348;10.980;2023-04-03T01:00:35;4.70;;;4.30;;
14143;SDS011;7152;48.348;10.980;2023-04-03T01:03:05;4.87;;;4.43;;
14143;SDS011;7152;48.348;10.980;2023-04-03T01:05:30;5.00;;;4.50;;
14143;SDS011;7152;48.348;10.980;2023-04-03T01:07:57;4.77;;;4.37;;
14143;SDS011;7152;48.348;10.980;2023-04-03T01:10:23;3.90;;;3.60;;
14143;SDS011;7152;48.348;10.980;2023-04-03T01:12:50;4.60;;;4.20;;
14143;SDS011;7152;48.348;10.980;2023-04-03T01:15:18;4.33;;;3.90;;
14143;SDS011;7152;48.348;10.980;2023-04-03T01:17:49;4.03;;;3.73;;
14143;SDS011;7152;48.348;10.980;2023-04-03T01:33:44;3.97;;;3.57;;
14143;SDS011;7152;48.348;10.980;2023-04-03T01:36:12;4.03;;;3.73;;
14143;SDS011;7152;48.348;10.980;2023-04-03T01:38:42;4.00;;;3.67;;
14143;SDS011;7152;48.348;10.980;2023-04-03T01:41:07;3.53;;;3.13;;
14143;SDS011;7152;48.348;10.980;2023-04-03T01:43:33;3.73;;;3.50;;
14143;SDS011;7152;48.348;10.980;2023-04-03T01:45:59;3.87;;;3.57;;
14143;SDS011;7152;48.348;10.980;2023-04-03T01:48:25;4.33;;;3.50;;
14143;SDS011;7152;48.348;10.980;2023-04-03T01:50:50;4.20;;;3.80;;
14143;SDS011;7152;48.348;10.980;2023-04-03T01:53:16;5.97;;;3.90;;
14143;SDS011;7152;48.348;10.980;2023-04-03T01:55:42;3.80;;;3.30;;
14143;SDS011;7152;48.348;10.980;2023-04-03T01:58:07;3.80;;;3.40;;
14143;SDS011;7152;48.348;10.980;2023-04-03T02:00:33;3.50;;;3.20;;
14143;SDS011;7152;48.348;10.980;2023-04-03T02:02:58;4.03;;;3.60;;
14143;SDS011;7152;48.348;10.980;2023-04-03T02:05:24;3.90;;;3.50;;
14143;SDS011;7152;48.348;10.980;2023-04-03T02:07:50;3.70;;;3.40;;
14143;SDS011;7152;48.348;10.980;2023-04-03T02:10:16;4.27;;;3.97;;
14143;SDS011;7152;48.348;10.980;2023-04-03T02:12:41;3.80;;;3.33;;
14143;SDS011;7152;48.348;10.980;2023-04-03T02:15:07;4.43;;;4.03;;
14143;SDS011;7152;48.348;10.980;2023-04-03T02:17:34;5.27;;;4.10;;
14143;SDS011;7152;48.348;10.980;2023-04-03T02:20:00;4.23;;;3.73;;
14143;SDS011;7152;48.348;10.980;2023-04-03T02:22:26;3.30;;;3.10;;
14143;SDS011;7152;48.348;10.980;2023-04-03T02:24:51;4.10;;;3.73;;
14143;SDS011;7152;48.348;10.980;2023-04-03T02:27:17;3.67;;;3.37;;
14143;SDS011;7152;48.348;10.980;2023-04-03T02:29:42;4.03;;;3.70;;
14143;SDS011;7152;48.348;10.980;2023-04-03T02:32:08;3.83;;;3.53;;
14143;SDS011;7152;48.348;10.980;2023-04-03T02:34:34;3.87;;;3.57;;
14143;SDS011;7152;48.348;10.980;2023-04-03T02:36:59;3.60;;;3.30;;
14143;SDS011;7152;48.348;10.980;2023-04-03T02:39:25;3.83;;;3.53;;
14143;SDS011;7152;48.348;10.980;2023-04-03T02:41:51;3.83;;;3.47;;
14143;SDS011;7152;48.348;10.980;2023-04-03T02:44:16;3.80;;;3.50;;
14143;SDS011;7152;48.348;10.980;2023-04-03T02:46:42;3.73;;;3.43;;
14143;SDS011;7152;48.348;10.980;2023-04-03T02:49:08;4.33;;;3.13;;
14143;SDS011;7152;48.348;10.980;2023-04-03T02:51:33;4.13;;;3.20;;
14143;SDS011;7152;48.348;10.980;2023-04-03T02:53:59;4.23;;;3.43;;
14143;SDS011;7152;48.348;10.980;2023-04-03T02:56:25;4.47;;;3.00;;
14143;SDS011;7152;48.348;10.980;2023-04-03T02:58:51;4.00;;;3.60;;
14143;SDS011;7152;48.348;10.980;2023-04-03T03:01:17;3.60;;;3.30;;
14143;SDS011;7152;48.348;10.980;2023-04-03T03:03:43;4.00;;;3.63;;
14143;SDS011;7152;48.348;10.980;2023-04-03T03:06:10;3.53;;;3.23;;
14143;SDS011;7152;48.348;10.980;2023-04-03T03:08:38;3.60;;;3.30;;
14143;SDS011;7152;48.348;10.980;2023-04-03T03:11:04;4.17;;;3.87;;
14143;SDS011;7152;48.348;10.980;2023-04-03T03:13:31;4.20;;;3.80;;
14143;SDS011;7152;48.348;10.980;2023-04-03T03:15:57;4.27;;;3.90;;
14143;SDS011;7152;48.348;10.980;2023-04-03T03:18:22;3.83;;;3.53;;
14143;SDS011;7152;48.348;10.980;2023-04-03T03:20:52;4.50;;;4.10;;
14143;SDS011;7152;48.348;10.980;2023-04-03T03:23:18;4.30;;;3.90;;
14143;SDS011;7152;48.348;10.980;2023-04-03T03:25:44;3.63;;;3.33;;
14143;SDS011;7152;48.348;10.980;2023-04-03T03:28:10;4.27;;;3.90;;
14143;SDS011;7152;48.348;10.980;2023-04-03T03:30:36;4.20;;;3.80;;
14143;SDS011;7152;48.348;10.980;2023-04-03T03:33:02;4.47;;;4.07;;
14143;SDS011;7152;48.348;10.980;2023-04-03T03:35:28;4.77;;;3.83;;
14143;SDS011;7152;48.348;10.980;2023-04-03T03:37:53;3.87;;;3.57;;
14143;SDS011;7152;48.348;10.980;2023-04-03T03:40:19;4.50;;;4.10;;
14143;SDS011;7152;48.348;10.980;2023-04-03T03:42:45;4.60;;;4.20;;
14143;SDS011;7152;48.348;10.980;2023-04-03T03:45:10;4.63;;;3.93;;
14143;SDS011;7152;48.348;10.980;2023-04-03T03:47:36;4.80;;;4.20;;
14143;SDS011;7152;48.348;10.980;2023-04-03T03:50:02;4.47;;;4.17;;
14143;SDS011;7152;48.348;10.980;2023-04-03T03:52:28;4.73;;;4.33;;
14143;SDS011;7152;48.348;10.980;2023-04-03T03:54:55;4.77;;;4.37;;
14143;SDS011;7152;48.348;10.980;2023-04-03T03:57:20;4.83;;;4.43;;
14143;SDS011;7152;48.348;10.980;2023-04-03T03:59:46;4.83;;;4.30;;
14143;SDS011;7152;48.348;10.980;2023-04-03T04:02:13;4.87;;;4.37;;
14143;SDS011;7152;48.348;10.980;2023-04-03T04:04:39;4.77;;;4.37;;
14143;SDS011;7152;48.348;10.980;2023-04-03T04:07:05;4.70;;;4.40;;
14143;SDS011;7152;48.348;10.980;2023-04-03T04:09:30;4.93;;;4.07;;
14143;SDS011;7152;48.348;10.980;2023-04-03T04:11:56;4.70;;;4.40;;
14143;SDS011;7152;48.348;10.980;2023-04-03T04:14:21;5.77;;;5.20;;
14143;SDS011;7152;48.348;10.980;2023-04-03T04:16:47;5.00;;;4.50;;
14143;SDS011;7152;48.348;10.980;2023-04-03T04:19:13;4.90;;;4.40;;
14143;SDS011;7152;48.348;10.980;2023-04-03T04:21:39;5.20;;;4.80;;
14143;SDS011;7152;48.348;10.980;2023-04-03T04:24:06;5.30;;;4.80;;
14143;SDS011;7152;48.348;10.980;2023-04-03T04:26:32;4.87;;;4.47;;
14143;SDS011;7152;48.348;10.980;2023-04-03T04:28:58;4.47;;;4.00;;
14143;SDS011;7152;48.348;10.980;2023-04-03T04:31:23;4.80;;;4.30;;
14143;SDS011;7152;48.348;10.980;2023-04-03T04:33:49;4.90;;;4.43;;
14143;SDS011;7152;48.348;10.980;2023-04-03T04:36:15;4.67;;;4.27;;
14143;SDS011;7152;48.348;10.980;2023-04-03T04:38:41;4.80;;;4.00;;
14143;SDS011;7152;48.348;10.980;2023-04-03T04:41:07;4.27;;;3.97;;
14143;SDS011;7152;48.348;10.980;2023-04-03T04:43:33;4.80;;;4.40;;
14143;SDS011;7152;48.348;10.980;2023-04-03T04:48:31;5.40;;;4.90;;
14143;SDS011;7152;48.348;10.980;2023-04-03T04:50:57;5.20;;;4.70;;
14143;SDS011;7152;48.348;10.980;2023-04-03T04:53:23;4.77;;;4.37;;
14143;SDS011;7152;48.348;10.980;2023-04-03T04:55:49;7.77;;;5.13;;
14143;SDS011;7152;48.348;10.980;2023-04-03T04:58:14;5.27;;;4.70;;
14143;SDS011;7152;48.348;10.980;2023-04-03T05:00:40;5.57;;;5.07;;
14143;SDS011;7152;48.348;10.980;2023-04-03T05:03:06;5.80;;;5.20;;
14143;SDS011;7152;48.348;10.980;2023-04-03T05:05:31;5.93;;;4.87;;
14143;SDS011;7152;48.348;10.980;2023-04-03T05:07:57;6.37;;;4.90;;
14143;SDS011;7152;48.348;10.980;2023-04-03T05:10:22;5.67;;;4.40;;
14143;SDS011;7152;48.348;10.980;2023-04-03T05:12:48;5.00;;;4.60;;
14143;SDS011;7152;48.348;10.980;2023-04-03T05:15:14;6.00;;;5.40;;
14143;SDS011;7152;48.348;10.980;2023-04-03T05:17:39;5.17;;;4.67;;
14143;SDS011;7152;48.348;10.980;2023-04-03T05:20:05;5.93;;;5.37;;
14143;SDS011;7152;48.348;10.980;2023-04-03T05:22:31;5.33;;;4.93;;
14143;SDS011;7152;48.348;10.980;2023-04-03T05:24:57;6.07;;;4.97;;
14143;SDS011;7152;48.348;10.980;2023-04-03T05:27:23;5.67;;;5.17;;
14143;SDS011;7152;48.348;10.980;2023-04-03T05:29:49;5.07;;;4.67;;
14143;SDS011;7152;48.348;10.980;2023-04-03T05:32:15;5.30;;;4.80;;
14143;SDS011;7152;48.348;10.980;2023-04-03T05:34:41;4.90;;;4.40;;
14143;SDS011;7152;48.348;10.980;2023-04-03T05:37:07;5.23;;;4.67;;
14143;SDS011;7152;48.348;10.980;2023-04-03T05:39:33;5.50;;;5.00;;
14143;SDS011;7152;48.348;10.980;2023-04-03T05:41:58;5.80;;;5.30;;
14143;SDS011;7152;48.348;10.980;2023-04-03T05:44:24;5.73;;;5.13;;
14143;SDS011;7152;48.348;10.980;2023-04-03T05:46:50;5.30;;;4.80;;
14143;SDS011;7152;48.348;10.980;2023-04-03T05:49:16;6.00;;;5.40;;
14143;SDS011;7152;48.348;10.980;2023-04-03T05:51:41;5.30;;;4.80;;
14143;SDS011;7152;48.348;10.980;2023-04-03T05:54:24;7.07;;;5.33;;
14143;SDS011;7152;48.348;10.980;2023-04-03T05:56:51;5.27;;;4.77;;
14143;SDS011;7152;48.348;10.980;2023-04-03T05:59:17;5.87;;;5.37;;
14143;SDS011;7152;48.348;10.980;2023-04-03T06:01:43;5.40;;;4.90;;
14143;SDS011;7152;48.348;10.980;2023-04-03T06:04:09;5.07;;;4.60;;
14143;SDS011;7152;48.348;10.980;2023-04-03T06:09:18;6.13;;;5.53;;
14143;SDS011;7152;48.348;10.980;2023-04-03T06:11:45;6.13;;;5.43;;
14143;SDS011;7152;48.348;10.980;2023-04-03T06:14:11;5.57;;;5.07;;
14143;SDS011;7152;48.348;10.980;2023-04-03T06:16:37;5.20;;;4.80;;
14143;SDS011;7152;48.348;10.980;2023-04-03T06:19:04;5.33;;;4.83;;
14143;SDS011;7152;48.348;10.980;2023-04-03T06:21:31;5.83;;;5.13;;
14143;SDS011;7152;48.348;10.980;2023-04-03T06:23:56;5.60;;;5.20;;
14143;SDS011;7152;48.348;10.980;2023-04-03T06:26:22;5.63;;;5.13;;
14143;SDS011;7152;48.348;10.980;2023-04-03T06:28:48;5.47;;;4.97;;
14143;SDS011;7152;48.348;10.980;2023-04-03T06:31:14;6.40;;;5.20;;
14143;SDS011;7152;48.348;10.980;2023-04-03T06:33:40;7.60;;;5.10;;
14143;SDS011;7152;48.348;10.980;2023-04-03T06:36:05;5.60;;;5.10;;
14143;SDS011;7152;48.348;10.980;2023-04-03T06:38:32;5.87;;;5.23;;
14143;SDS011;7152;48.348;10.980;2023-04-03T06:40:59;5.53;;;5.00;;
14143;SDS011;7152;48.348;10.980;2023-04-03T06:43:25;5.63;;;5.13;;
14143;SDS011;7152;48.348;10.980;2023-04-03T06:45:51;5.30;;;4.80;;
14143;SDS011;7152;48.348;10.980;2023-04-03T06:48:17;5.30;;;4.90;;
14143;SDS011;7152;48.348;10.980;2023-04-03T06:50:42;5.40;;;5.00;;
14143;SDS011;7152;48.348;10.980;2023-04-03T06:53:09;4.30;;;4.00;;
14143;SDS011;7152;48.348;10.980;2023-04-03T06:55:35;5.47;;;4.97;;
14143;SDS011;7152;48.348;10.980;2023-04-03T06:58:00;4.87;;;4.33;;
14143;SDS011;7152;48.348;10.980;2023-04-03T07:00:27;5.30;;;4.77;;
14143;SDS011;7152;48.348;10.980;2023-04-03T07:02:52;5.13;;;4.73;;
14143;SDS011;7152;48.348;10.980;2023-04-03T07:05:18;5.57;;;5.03;;
14143;SDS011;7152;48.348;10.980;2023-04-03T07:07:44;5.63;;;5.00;;
14143;SDS011;7152;48.348;10.980;2023-04-03T07:10:10;5.70;;;5.07;;
14143;SDS011;7152;48.348;10.980;2023-04-03T07:12:36;5.20;;;4.80;;
14143;SDS011;7152;48.348;10.980;2023-04-03T07:15:03;4.70;;;4.30;;
14143;SDS011;7152;48.348;10.980;2023-04-03T07:17:30;5.40;;;4.90;;
14143;SDS011;7152;48.348;10.980;2023-04-03T07:19:56;5.70;;;5.20;;
14143;SDS011;7152;48.348;10.980;2023-04-03T07:22:22;5.80;;;4.90;;
14143;SDS011;7152;48.348;10.980;2023-04-03T07:24:47;6.60;;;5.00;;
14143;SDS011;7152;48.348;10.980;2023-04-03T07:27:13;5.07;;;4.60;;
14143;SDS011;7152;48.348;10.980;2023-04-03T07:29:39;5.17;;;4.70;;
14143;SDS011;7152;48.348;10.980;2023-04-03T07:32:05;4.97;;;4.40;;
14143;SDS011;7152;48.348;10.980;2023-04-03T07:34:31;5.60;;;5.00;;
14143;SDS011;7152;48.348;10.980;2023-04-03T07:36:57;4.50;;;4.17;;
14143;SDS011;7152;48.348;10.980;2023-04-03T07:39:23;5.03;;;4.27;;
14143;SDS011;7152;48.348;10.980;2023-04-03T07:41:49;4.50;;;4.13;;
14143;SDS011;7152;48.348;10.980;2023-04-03T07:44:15;5.20;;;4.70;;
14143;SDS011;7152;48.348;10.980;2023-04-03T07:46:41;5.60;;;5.03;;
14143;SDS011;7152;48.348;10.980;2023-04-03T07:49:07;4.50;;;4.10;;
14143;SDS011;7152;48.348;10.980;2023-04-03T07:51:33;5.17;;;4.50;;
14143;SDS011;7152;48.348;10.980;2023-04-03T07:53:59;4.80;;;4.33;;
14143;SDS011;7152;48.348;10.980;2023-04-03T07:56:25;5.10;;;4.23;;
14143;SDS011;7152;48.348;10.980;2023-04-03T07:58:51;4.73;;;4.43;;
14143;SDS011;7152;48.348;10.980;2023-04-03T08:01:17;4.60;;;4.20;;
14143;SDS011;7152;48.348;10.980;2023-04-03T08:03:42;4.77;;;4.37;;
14143;SDS011;7152;48.348;10.980;2023-04-03T08:06:08;4.80;;;3.90;;
14143;SDS011;7152;48.348;10.980;2023-04-03T08:08:34;4.37;;;3.97;;
14143;SDS011;7152;48.348;10.980;2023-04-03T08:11:01;5.83;;;4.13;;
14143;SDS011;7152;48.348;10.980;2023-04-03T08:13:28;3.93;;;3.53;;
14143;SDS011;7152;48.348;10.980;2023-04-03T08:15:55;4.13;;;3.73;;
14143;SDS011;7152;48.348;10.980;2023-04-03T08:18:22;4.20;;;3.60;;
14143;SDS011;7152;48.348;10.980;2023-04-03T08:20:51;5.07;;;3.97;;
14143;SDS011;7152;48.348;10.980;2023-04-03T08:23:17;5.10;;;4.30;;
14143;SDS011;7152;48.348;10.980;2023-04-03T08:25:43;4.90;;;3.50;;
14143;SDS011;7152;48.348;10.980;2023-04-03T08:28:10;4.90;;;3.73;;
14143;SDS011;7152;48.348;10.980;2023-04-03T08:30:40;4.27;;;3.87;;
14143;SDS011;7152;48.348;10.980;2023-04-03T08:33:07;4.07;;;3.63;;
14143;SDS011;7152;48.348;10.980;2023-04-03T08:35:37;4.53;;;3.27;;
14143;SDS011;7152;48.348;10.980;2023-04-03T08:38:04;3.63;;;3.37;;
14143;SDS011;7152;48.348;10.980;2023-04-03T08:40:29;4.93;;;4.10;;
14143;SDS011;7152;48.348;10.980;2023-04-03T08:45:25;3.80;;;3.50;;
14143;SDS011;7152;48.348;10.980;2023-04-03T08:48:00;3.93;;;3.30;;
14143;SDS011;7152;48.348;10.980;2023-04-03T08:50:39;3.77;;;3.47;;
14143;SDS011;7152;48.348;10.980;2023-04-03T08:53:11;3.63;;;3.30;;
14143;SDS011;7152;48.348;10.980;2023-04-03T08:55:47;4.57;;;3.70;;
14143;SDS011;7152;48.348;10.980;2023-04-03T09:00:46;4.03;;;3.30;;
14143;SDS011;7152;48.348;10.980;2023-04-03T09:03:19;3.87;;;3.57;;
14143;SDS011;7152;48.348;10.980;2023-04-03T09:06:05;3.87;;;3.50;;
14143;SDS011;7152;48.348;10.980;2023-04-03T09:11:24;3.77;;;3.40;;
14143;SDS011;7152;48.348;10.980;2023-04-03T09:13:59;4.37;;;3.20;;
14143;SDS011;7152;48.348;10.980;2023-04-03T09:16:42;4.13;;;3.70;;
14143;SDS011;7152;48.348;10.980;2023-04-03T09:21:50;3.40;;;3.10;;
14143;SDS011;7152;48.348;10.980;2023-04-03T09:24:16;4.10;;;3.70;;
14143;SDS011;7152;48.348;10.980;2023-04-03T09:26:48;3.70;;;3.33;;
14143;SDS011;7152;48.348;10.980;2023-04-03T09:29:21;6.37;;;3.47;;
14143;SDS011;7152;48.348;10.980;2023-04-03T09:31:49;4.20;;;3.40;;
14143;SDS011;7152;48.348;10.980;2023-04-03T09:34:20;4.47;;;3.57;;
14143;SDS011;7152;48.348;10.980;2023-04-03T09:36:52;4.70;;;3.50;;
14143;SDS011;7152;48.348;10.980;2023-04-03T09:39:24;3.70;;;3.17;;
14143;SDS011;7152;48.348;10.980;2023-04-03T09:42:04;3.70;;;3.40;;
14143;SDS011;7152;48.348;10.980;2023-04-03T09:44:40;3.70;;;3.40;;
14143;SDS011;7152;48.348;10.980;2023-04-03T09:47:21;3.30;;;2.90;;
14143;SDS011;7152;48.348;10.980;2023-04-03T09:50:15;4.70;;;3.20;;
14143;SDS011;7152;48.348;10.980;2023-04-03T09:52:46;5.27;;;3.63;;
14143;SDS011;7152;48.348;10.980;2023-04-03T09:57:51;3.70;;;3.30;;
14143;SDS011;7152;48.348;10.980;2023-04-03T10:00:30;3.70;;;3.40;;
14143;SDS011;7152;48.348;10.980;2023-04-03T10:03:05;4.63;;;3.90;;
14143;SDS011;7152;48.348;10.980;2023-04-03T10:05:48;6.57;;;4.00;;
14143;SDS011;7152;48.348;10.980;2023-04-03T10:10:43;4.10;;;3.70;;
14143;SDS011;7152;48.348;10.980;2023-04-03T10:15:42;4.60;;;3.73;;
14143;SDS011;7152;48.348;10.980;2023-04-03T10:21:14;4.10;;;3.73;;
14143;SDS011;7152;48.348;10.980;2023-04-03T10:23:50;5.40;;;3.80;;
14143;SDS011;7152;48.348;10.980;2023-04-03T10:28:53;3.50;;;3.20;;
14143;SDS011;7152;48.348;10.980;2023-04-03T10:39:54;3.57;;;3.23;;
14143;SDS011;7152;48.348;10.980;2023-04-03T10:45:11;5.33;;;3.57;;
14143;SDS011;7152;48.348;10.980;2023-04-03T10:47:46;5.60;;;3.77;;
14143;SDS011;7152;48.348;10.980;2023-04-03T10:56:01;4.13;;;3.83;;
14143;SDS011;7152;48.348;10.980;2023-04-03T10:58:43;3.50;;;3.20;;
14143;SDS011;7152;48.348;10.980;2023-04-03T11:01:20;4.70;;;3.83;;
14143;SDS011;7152;48.348;10.980;2023-04-03T11:03:56;4.00;;;3.53;;
14143;SDS011;7152;48.348;10.980;2023-04-03T11:06:25;6.07;;;4.47;;
14143;SDS011;7152;48.348;10.980;2023-04-03T11:09:07;4.23;;;3.23;;
14143;SDS011;7152;48.348;10.980;2023-04-03T11:11:42;4.13;;;3.67;;
14143;SDS011;7152;48.348;10.980;2023-04-03T11:14:31;6.13;;;3.60;;
14143;SDS011;7152;48.348;10.980;2023-04-03T11:22:41;3.90;;;3.50;;
14143;SDS011;7152;48.348;10.980;2023-04-03T11:35:38;4.93;;;3.83;;
14143;SDS011;7152;48.348;10.980;2023-04-03T11:38:15;4.30;;;3.90;;
14143;SDS011;7152;48.348;10.980;2023-04-03T11:40:51;4.17;;;3.77;;
14143;SDS011;7152;48.348;10.980;2023-04-03T11:43:26;3.77;;;3.33;;
14143;SDS011;7152;48.348;10.980;2023-04-03T11:46:03;5.40;;;3.73;;
14143;SDS011;7152;48.348;10.980;2023-04-03T11:53:41;4.07;;;3.40;;
14143;SDS011;7152;48.348;10.980;2023-04-03T12:01:48;3.37;;;3.07;;
14143;SDS011;7152;48.348;10.980;2023-04-03T12:04:16;4.93;;;3.53;;
14143;SDS011;7152;48.348;10.980;2023-04-03T12:12:49;2.70;;;2.40;;
14143;SDS011;7152;48.348;10.980;2023-04-03T12:21:07;3.50;;;2.50;;
14143;SDS011;7152;48.348;10.980;2023-04-03T12:23:35;2.93;;;2.63;;
14143;SDS011;7152;48.348;10.980;2023-04-03T12:26:21;3.50;;;3.03;;
14143;SDS011;7152;48.348;10.980;2023-04-03T12:28:51;3.80;;;2.40;;
14143;SDS011;7152;48.348;10.980;2023-04-03T12:31:18;3.20;;;2.67;;
14143;SDS011;7152;48.348;10.980;2023-04-03T12:34:07;5.40;;;3.60;;
14143;SDS011;7152;48.348;10.980;2023-04-03T12:39:48;2.83;;;2.53;;
14143;SDS011;7152;48.348;10.980;2023-04-03T12:42:32;2.67;;;2.47;;
14143;SDS011;7152;48.348;10.980;2023-04-03T12:45:22;2.40;;;2.20;;
14143;SDS011;7152;48.348;10.980;2023-04-03T12:47:49;4.23;;;2.67;;
14143;SDS011;7152;48.348;10.980;2023-04-03T12:53:11;2.93;;;2.23;;
14143;SDS011;7152;48.348;10.980;2023-04-03T12:55:39;2.70;;;2.00;;
14143;SDS011;7152;48.348;10.980;2023-04-03T13:01:01;2.07;;;1.90;;
14143;SDS011;7152;48.348;10.980;2023-04-03T13:03:39;2.27;;;1.80;;
14143;SDS011;7152;48.348;10.980;2023-04-03T13:06:10;3.30;;;2.40;;
14143;SDS011;7152;48.348;10.980;2023-04-03T13:08:53;2.87;;;2.17;;
14143;SDS011;7152;48.348;10.980;2023-04-03T13:11:22;4.53;;;2.10;;
14143;SDS011;7152;48.348;10.980;2023-04-03T13:13:56;9.30;;;2.80;;
14143;SDS011;7152;48.348;10.980;2023-04-03T13:16:30;3.43;;;2.67;;
14143;SDS011;7152;48.348;10.980;2023-04-03T13:18:57;2.70;;;2.20;;
14143;SDS011;7152;48.348;10.980;2023-04-03T13:21:27;3.60;;;2.07;;
14143;SDS011;7152;48.348;10.980;2023-04-03T13:23:57;2.63;;;2.10;;
14143;SDS011;7152;48.348;10.980;2023-04-03T13:26:26;3.00;;;2.20;;
14143;SDS011;7152;48.348;10.980;2023-04-03T13:28:58;1.97;;;1.77;;
14143;SDS011;7152;48.348;10.980;2023-04-03T13:31:29;2.00;;;1.80;;
14143;SDS011;7152;48.348;10.980;2023-04-03T13:34:05;3.30;;;2.00;;
14143;SDS011;7152;48.348;10.980;2023-04-03T13:36:36;1.80;;;1.70;;
14143;SDS011;7152;48.348;10.980;2023-04-03T13:39:18;2.17;;;1.87;;
14143;SDS011;7152;48.348;10.980;2023-04-03T13:41:51;2.97;;;1.97;;
14143;SDS011;7152;48.348;10.980;2023-04-03T13:46:55;2.30;;;2.07;;
14143;SDS011;7152;48.348;10.980;2023-04-03T13:49:42;2.17;;;1.90;;
14143;SDS011;7152;48.348;10.980;2023-04-03T13:52:27;3.13;;;1.90;;
14143;SDS011;7152;48.348;10.980;2023-04-03T13:55:02;2.57;;;1.80;;
14143;SDS011;7152;48.348;10.980;2023-04-03T13:57:56;2.63;;;1.80;;
14143;SDS011;7152;48.348;10.980;2023-04-03T14:03:02;2.40;;;2.20;;
14143;SDS011;7152;48.348;10.980;2023-04-03T14:05:36;2.20;;;1.60;;
14143;SDS011;7152;48.348;10.980;2023-04-03T14:08:02;1.90;;;1.70;;
14143;SDS011;7152;48.348;10.980;2023-04-03T14:10:28;2.53;;;1.70;;
14143;SDS011;7152;48.348;10.980;2023-04-03T14:12:54;2.63;;;1.80;;
14143;SDS011;7152;48.348;10.980;2023-04-03T14:15:24;2.77;;;1.90;;
14143;SDS011;7152;48.348;10.980;2023-04-03T14:17:53;1.80;;;1.70;;
14143;SDS011;7152;48.348;10.980;2023-04-03T14:20:21;2.97;;;2.00;;
14143;SDS011;7152;48.348;10.980;2023-04-03T14:22:49;1.97;;;1.60;;
14143;SDS011;7152;48.348;10.980;2023-04-03T14:25:16;2.77;;;1.77;;
14143;SDS011;7152;48.348;10.980;2023-04-03T14:27:44;2.23;;;1.80;;
14143;SDS011;7152;48.348;10.980;2023-04-03T14:30:14;2.00;;;1.80;;
14143;SDS011;7152;48.348;10.980;2023-04-03T14:32:40;1.83;;;1.53;;
14143;SDS011;7152;48.348;10.980;2023-04-03T14:35:06;2.40;;;1.83;;
14143;SDS011;7152;48.348;10.980;2023-04-03T14:37:32;1.70;;;1.60;;
14143;SDS011;7152;48.348;10.980;2023-04-03T14:39:59;1.57;;;1.47;;
14143;SDS011;7152;48.348;10.980;2023-04-03T14:42:27;3.70;;;1.80;;
14143;SDS011;7152;48.348;10.980;2023-04-03T14:44:55;2.33;;;1.47;;
14143;SDS011;7152;48.348;10.980;2023-04-03T14:47:23;1.60;;;1.43;;
14143;SDS011;7152;48.348;10.980;2023-04-03T14:49:52;3.37;;;1.70;;
14143;SDS011;7152;48.348;10.980;2023-04-03T14:52:20;2.57;;;1.30;;
14143;SDS011;7152;48.348;10.980;2023-04-03T14:54:57;2.43;;;1.83;;
14143;SDS011;7152;48.348;10.980;2023-04-03T14:57:23;4.27;;;1.70;;
14143;SDS011;7152;48.348;10.980;2023-04-03T14:59:50;2.73;;;1.60;;
14143;SDS011;7152;48.348;10.980;2023-04-03T15:02:29;2.13;;;1.50;;
14143;SDS011;7152;48.348;10.980;2023-04-03T15:04:58;1.80;;;1.30;;
14143;SDS011;7152;48.348;10.980;2023-04-03T15:07:25;1.60;;;1.40;;
14143;SDS011;7152;48.348;10.980;2023-04-03T15:09:53;3.20;;;1.50;;
14143;SDS011;7152;48.348;10.980;2023-04-03T15:12:21;2.30;;;1.70;;
14143;SDS011;7152;48.348;10.980;2023-04-03T15:14:47;1.90;;;1.43;;
14143;SDS011;7152;48.348;10.980;2023-04-03T15:17:17;2.97;;;2.10;;
14143;SDS011;7152;48.348;10.980;2023-04-03T15:19:46;2.80;;;1.40;;
14143;SDS011;7152;48.348;10.980;2023-04-03T15:22:16;1.27;;;1.17;;
14143;SDS011;7152;48.348;10.980;2023-04-03T15:24:44;1.93;;;1.40;;
14143;SDS011;7152;48.348;10.980;2023-04-03T15:27:10;2.63;;;1.33;;
14143;SDS011;7152;48.348;10.980;2023-04-03T15:29:37;2.17;;;1.80;;
14143;SDS011;7152;48.348;10.980;2023-04-03T15:32:04;1.97;;;1.40;;
14143;SDS011;7152;48.348;10.980;2023-04-03T15:34:30;2.23;;;1.40;;
14143;SDS011;7152;48.348;10.980;2023-04-03T15:36:56;2.43;;;1.63;;
14143;SDS011;7152;48.348;10.980;2023-04-03T15:39:21;2.17;;;1.57;;
14143;SDS011;7152;48.348;10.980;2023-04-03T15:41:48;2.93;;;1.63;;
14143;SDS011;7152;48.348;10.980;2023-04-03T15:44:14;2.47;;;1.30;;
14143;SDS011;7152;48.348;10.980;2023-04-03T15:46:42;2.30;;;1.63;;
14143;SDS011;7152;48.348;10.980;2023-04-03T15:49:08;2.67;;;1.17;;
14143;SDS011;7152;48.348;10.980;2023-04-03T15:51:35;1.40;;;1.30;;
14143;SDS011;7152;48.348;10.980;2023-04-03T15:54:00;3.00;;;1.60;;
14143;SDS011;7152;48.348;10.980;2023-04-03T15:56:26;2.10;;;1.47;;
14143;SDS011;7152;48.348;10.980;2023-04-03T15:58:52;2.47;;;1.53;;
14143;SDS011;7152;48.348;10.980;2023-04-03T16:01:17;2.47;;;1.77;;
14143;SDS011;7152;48.348;10.980;2023-04-03T16:03:43;2.17;;;1.80;;
14143;SDS011;7152;48.348;10.980;2023-04-03T16:06:10;1.80;;;1.43;;
14143;SDS011;7152;48.348;10.980;2023-04-03T16:08:37;3.87;;;1.60;;
14143;SDS011;7152;48.348;10.980;2023-04-03T16:11:03;2.17;;;1.60;;
14143;SDS011;7152;48.348;10.980;2023-04-03T16:13:29;1.77;;;1.30;;
14143;SDS011;7152;48.348;10.980;2023-04-03T16:15:54;2.53;;;1.50;;
14143;SDS011;7152;48.348;10.980;2023-04-03T16:18:20;2.43;;;1.50;;
14143;SDS011;7152;48.348;10.980;2023-04-03T16:20:46;3.40;;;1.50;;
14143;SDS011;7152;48.348;10.980;2023-04-03T16:23:12;1.87;;;1.53;;
14143;SDS011;7152;48.348;10.980;2023-04-03T16:25:38;1.47;;;1.37;;
14143;SDS011;7152;48.348;10.980;2023-04-03T16:28:03;3.93;;;2.87;;
14143;SDS011;7152;48.348;10.980;2023-04-03T16:30:29;4.27;;;2.40;;
14143;SDS011;7152;48.348;10.980;2023-04-03T16:32:55;2.83;;;1.70;;
14143;SDS011;7152;48.348;10.980;2023-04-03T16:35:21;2.30;;;1.80;;
14143;SDS011;7152;48.348;10.980;2023-04-03T16:37:47;2.00;;;1.80;;
14143;SDS011;7152;48.348;10.980;2023-04-03T16:40:13;1.93;;;1.67;;
14143;SDS011;7152;48.348;10.980;2023-04-03T16:42:39;2.20;;;1.20;;
14143;SDS011;7152;48.348;10.980;2023-04-03T16:45:06;1.87;;;1.70;;
14143;SDS011;7152;48.348;10.980;2023-04-03T16:47:32;2.20;;;1.77;;